sensor_id;sensor_type;location;lat;lon;timestamp;temperature;humidity
16513;DHT22;8369;48.030;11.598;2023-03-01T00:01:11;0.60;99.90
16513;DHT22;8369;48.030;11.598;2023-03-01T00:03:37;0.60;99.90
16513;DHT22;8369;48.030;11.598;2023-03-01T00:06:04;0.60;99.90
16513;DHT22;8369;48.030;11.598;2023-03-01T00:08:31;0.60;99.90
16513;DHT22;8369;48.030;11.598;2023-03-01T00:11:07;0.60;99.90
16513;DHT22;8369;48.030;11.598;2023-03-01T00:13:34;0.60;99.90
16513;DHT22;8369;48.030;11.598;2023-03-01T00:16:09;0.60;99.90
16513;DHT22;8369;48.030;11.598;2023-03-01T00:18:35;0.60;99.90
16513;DHT22;8369;48.030;11.598;2023-03-01T00:21:00;0.60;99.90
16513;DHT22;8369;48.030;11.598;2023-03-01T00:23:26;0.60;99.90
16513;DHT22;8369;48.030;11.598;2023-03-01T00:25:53;0.60;99.90
16513;DHT22;8369;48.030;11.598;2023-03-01T00:28:19;0.60;99.90
16513;DHT22;8369;48.030;11.598;2023-03-01T00:30:45;0.50;99.90
16513;DHT22;8369;48.030;11.598;2023-03-01T00:33:11;0.60;99.90
16513;DHT22;8369;48.030;11.598;2023-03-01T00:35:37;0.60;99.90
16513;DHT22;8369;48.030;11.598;2023-03-01T00:38:04;0.60;99.90
16513;DHT22;8369;48.030;11.598;2023-03-01T00:40:32;0.60;99.90
16513;DHT22;8369;48.030;11.598;2023-03-01T00:42:58;0.60;99.90
16513;DHT22;8369;48.030;11.598;2023-03-01T00:45:24;0.60;99.90
16513;DHT22;8369;48.030;11.598;2023-03-01T00:47:50;0.60;99.90
16513;DHT22;8369;48.030;11.598;2023-03-01T00:50:17;0.50;99.90
16513;DHT22;8369;48.030;11.598;2023-03-01T00:52:43;0.60;99.90
16513;DHT22;8369;48.030;11.598;2023-03-01T00:55:10;0.50;99.90
16513;DHT22;8369;48.030;11.598;2023-03-01T00:57:36;0.50;99.90
16513;DHT22;8369;48.030;11.598;2023-03-01T01:00:04;0.60;99.90
16513;DHT22;8369;48.030;11.598;2023-03-01T01:02:31;0.50;99.90
16513;DHT22;8369;48.030;11.598;2023-03-01T01:04:57;0.50;99.90
16513;DHT22;8369;48.030;11.598;2023-03-01T01:07:23;0.50;99.90
16513;DHT22;8369;48.030;11.598;2023-03-01T01:09:49;0.50;99.90
16513;DHT22;8369;48.030;11.598;2023-03-01T01:12:15;0.50;99.90
16513;DHT22;8369;48.030;11.598;2023-03-01T01:14:40;0.50;99.90
16513;DHT22;8369;48.030;11.598;2023-03-01T01:17:06;0.50;99.90
16513;DHT22;8369;48.030;11.598;2023-03-01T01:19:32;0.50;99.90
16513;DHT22;8369;48.030;11.598;2023-03-01T01:21:58;0.50;99.90
16513;DHT22;8369;48.030;11.598;2023-03-01T01:24:24;0.50;99.90
16513;DHT22;8369;48.030;11.598;2023-03-01T01:26:49;0.50;99.90
16513;DHT22;8369;48.030;11.598;2023-03-01T01:29:15;0.50;99.90
16513;DHT22;8369;48.030;11.598;2023-03-01T01:31:43;0.50;99.90
16513;DHT22;8369;48.030;11.598;2023-03-01T01:34:17;0.50;99.90
16513;DHT22;8369;48.030;11.598;2023-03-01T01:36:43;0.50;99.90
16513;DHT22;8369;48.030;11.598;2023-03-01T01:39:10;0.50;99.90
16513;DHT22;8369;48.030;11.598;2023-03-01T01:41:40;0.50;99.90
16513;DHT22;8369;48.030;11.598;2023-03-01T01:49:33;0.50;99.90
16513;DHT22;8369;48.030;11.598;2023-03-01T01:54:56;0.50;99.90
16513;DHT22;8369;48.030;11.598;2023-03-01T01:57:32;0.50;99.90
16513;DHT22;8369;48.030;11.598;2023-03-01T02:00:03;0.50;99.90
16513;DHT22;8369;48.030;11.598;2023-03-01T02:02:30;0.50;99.90
16513;DHT22;8369;48.030;11.598;2023-03-01T02:05:09;0.40;99.90
16513;DHT22;8369;48.030;11.598;2023-03-01T02:07:39;0.40;99.90
16513;DHT22;8369;48.030;11.598;2023-03-01T02:10:05;0.40;99.90
16513;DHT22;8369;48.030;11.598;2023-03-01T02:12:32;0.40;99.90
16513;DHT22;8369;48.030;11.598;2023-03-01T02:14:59;0.40;99.90
16513;DHT22;8369;48.030;11.598;2023-03-01T02:17:25;0.40;99.90
16513;DHT22;8369;48.030;11.598;2023-03-01T02:22:37;0.40;99.90
16513;DHT22;8369;48.030;11.598;2023-03-01T02:27:41;0.40;99.90
16513;DHT22;8369;48.030;11.598;2023-03-01T02:30:10;0.40;99.90
16513;DHT22;8369;48.030;11.598;2023-03-01T02:32:40;0.40;99.90
16513;DHT22;8369;48.030;11.598;2023-03-01T02:35:10;0.40;99.90
16513;DHT22;8369;48.030;11.598;2023-03-01T02:37:37;0.40;99.90
16513;DHT22;8369;48.030;11.598;2023-03-01T02:40:14;0.40;99.90
16513;DHT22;8369;48.030;11.598;2023-03-01T02:42:52;0.40;99.90
16513;DHT22;8369;48.030;11.598;2023-03-01T02:45:19;0.40;99.90
16513;DHT22;8369;48.030;11.598;2023-03-01T02:47:45;0.40;99.90
16513;DHT22;8369;48.030;11.598;2023-03-01T02:50:33;0.40;99.90
16513;DHT22;8369;48.030;11.598;2023-03-01T02:53:08;0.40;99.90
16513;DHT22;8369;48.030;11.598;2023-03-01T02:55:36;0.40;99.90
16513;DHT22;8369;48.030;11.598;2023-03-01T02:58:02;0.40;99.90
16513;DHT22;8369;48.030;11.598;2023-03-01T03:00:34;0.40;99.90
16513;DHT22;8369;48.030;11.598;2023-03-01T03:03:01;0.40;99.90
16513;DHT22;8369;48.030;11.598;2023-03-01T03:05:31;0.40;99.90
16513;DHT22;8369;48.030;11.598;2023-03-01T03:07:58;0.30;99.90
16513;DHT22;8369;48.030;11.598;2023-03-01T03:10:27;0.40;99.90
16513;DHT22;8369;48.030;11.598;2023-03-01T03:13:01;0.30;99.90
16513;DHT22;8369;48.030;11.598;2023-03-01T03:15:28;0.40;99.90
16513;DHT22;8369;48.030;11.598;2023-03-01T03:17:55;0.40;99.90
16513;DHT22;8369;48.030;11.598;2023-03-01T03:20:24;0.40;99.90
16513;DHT22;8369;48.030;11.598;2023-03-01T03:22:53;0.40;99.90
16513;DHT22;8369;48.030;11.598;2023-03-01T03:25:21;0.30;99.90
16513;DHT22;8369;48.030;11.598;2023-03-01T03:27:48;0.30;99.90
16513;DHT22;8369;48.030;11.598;2023-03-01T03:30:18;0.30;99.90
16513;DHT22;8369;48.030;11.598;2023-03-01T03:32:47;0.30;99.90
16513;DHT22;8369;48.030;11.598;2023-03-01T03:35:24;0.30;99.90
16513;DHT22;8369;48.030;11.598;2023-03-01T03:37:51;0.30;99.90
16513;DHT22;8369;48.030;11.598;2023-03-01T03:40:36;0.30;99.90
16513;DHT22;8369;48.030;11.598;2023-03-01T03:43:04;0.30;99.90
16513;DHT22;8369;48.030;11.598;2023-03-01T03:45:30;0.30;99.90
16513;DHT22;8369;48.030;11.598;2023-03-01T03:47:59;0.30;99.90
16513;DHT22;8369;48.030;11.598;2023-03-01T03:50:24;0.20;99.90
16513;DHT22;8369;48.030;11.598;2023-03-01T03:52:50;0.30;99.90
16513;DHT22;8369;48.030;11.598;2023-03-01T03:55:16;0.30;99.90
16513;DHT22;8369;48.030;11.598;2023-03-01T03:57:46;0.30;99.90
16513;DHT22;8369;48.030;11.598;2023-03-01T04:00:22;0.30;99.90
16513;DHT22;8369;48.030;11.598;2023-03-01T04:02:50;0.30;99.90
16513;DHT22;8369;48.030;11.598;2023-03-01T04:05:18;0.20;99.90
16513;DHT22;8369;48.030;11.598;2023-03-01T04:07:44;0.30;99.90
16513;DHT22;8369;48.030;11.598;2023-03-01T04:10:14;0.20;99.90
16513;DHT22;8369;48.030;11.598;2023-03-01T04:12:39;0.20;99.90
16513;DHT22;8369;48.030;11.598;2023-03-01T04:15:07;0.20;99.90
16513;DHT22;8369;48.030;11.598;2023-03-01T04:17:43;0.20;99.90
16513;DHT22;8369;48.030;11.598;2023-03-01T04:20:15;0.20;99.90
16513;DHT22;8369;48.030;11.598;2023-03-01T04:22:56;0.20;99.90
16513;DHT22;8369;48.030;11.598;2023-03-01T04:25:25;0.20;99.90
16513;DHT22;8369;48.030;11.598;2023-03-01T04:27:51;0.20;99.90
16513;DHT22;8369;48.030;11.598;2023-03-01T04:30:17;0.20;99.90
16513;DHT22;8369;48.030;11.598;2023-03-01T04:32:43;0.20;99.90
16513;DHT22;8369;48.030;11.598;2023-03-01T04:35:09;0.10;99.90
16513;DHT22;8369;48.030;11.598;2023-03-01T04:37:35;0.10;99.90
16513;DHT22;8369;48.030;11.598;2023-03-01T04:40:04;0.10;99.90
16513;DHT22;8369;48.030;11.598;2023-03-01T04:42:38;0.10;99.90
16513;DHT22;8369;48.030;11.598;2023-03-01T04:45:05;0.10;99.90
16513;DHT22;8369;48.030;11.598;2023-03-01T04:47:39;0.10;99.90
16513;DHT22;8369;48.030;11.598;2023-03-01T04:50:06;0.10;99.90
16513;DHT22;8369;48.030;11.598;2023-03-01T04:52:32;0.00;99.90
16513;DHT22;8369;48.030;11.598;2023-03-01T04:55:01;0.10;99.90
16513;DHT22;8369;48.030;11.598;2023-03-01T04:57:29;0.00;99.90
16513;DHT22;8369;48.030;11.598;2023-03-01T04:59:55;0.00;99.90
16513;DHT22;8369;48.030;11.598;2023-03-01T05:02:21;0.00;99.90
16513;DHT22;8369;48.030;11.598;2023-03-01T05:04:46;0.00;99.90
16513;DHT22;8369;48.030;11.598;2023-03-01T05:07:12;-0.10;99.90
16513;DHT22;8369;48.030;11.598;2023-03-01T05:09:38;-0.10;99.90
16513;DHT22;8369;48.030;11.598;2023-03-01T05:12:04;-0.10;99.90
16513;DHT22;8369;48.030;11.598;2023-03-01T05:14:30;-0.10;99.90
16513;DHT22;8369;48.030;11.598;2023-03-01T05:16:56;-0.10;99.90
16513;DHT22;8369;48.030;11.598;2023-03-01T05:19:30;-0.10;99.90
16513;DHT22;8369;48.030;11.598;2023-03-01T05:21:57;-0.10;99.90
16513;DHT22;8369;48.030;11.598;2023-03-01T05:24:33;-0.10;99.90
16513;DHT22;8369;48.030;11.598;2023-03-01T05:27:00;-0.10;99.90
16513;DHT22;8369;48.030;11.598;2023-03-01T05:29:27;-0.10;99.90
16513;DHT22;8369;48.030;11.598;2023-03-01T05:31:55;-0.10;99.90
16513;DHT22;8369;48.030;11.598;2023-03-01T05:34:35;-0.10;99.90
16513;DHT22;8369;48.030;11.598;2023-03-01T05:37:02;-0.10;99.90
16513;DHT22;8369;48.030;11.598;2023-03-01T05:39:29;-0.20;99.90
16513;DHT22;8369;48.030;11.598;2023-03-01T05:41:56;-0.20;99.90
16513;DHT22;8369;48.030;11.598;2023-03-01T05:44:23;-0.20;99.90
16513;DHT22;8369;48.030;11.598;2023-03-01T05:46:49;-0.20;99.90
16513;DHT22;8369;48.030;11.598;2023-03-01T05:49:15;-0.20;99.90
16513;DHT22;8369;48.030;11.598;2023-03-01T05:51:42;-0.20;99.90
16513;DHT22;8369;48.030;11.598;2023-03-01T05:54:11;-0.20;99.90
16513;DHT22;8369;48.030;11.598;2023-03-01T05:56:37;-0.20;99.90
16513;DHT22;8369;48.030;11.598;2023-03-01T05:59:04;-0.20;99.90
16513;DHT22;8369;48.030;11.598;2023-03-01T06:01:34;-0.20;99.90
16513;DHT22;8369;48.030;11.598;2023-03-01T06:04:00;-0.20;99.90
16513;DHT22;8369;48.030;11.598;2023-03-01T06:06:26;-0.30;99.90
16513;DHT22;8369;48.030;11.598;2023-03-01T06:08:52;-0.30;99.90
16513;DHT22;8369;48.030;11.598;2023-03-01T06:11:19;-0.30;99.90
16513;DHT22;8369;48.030;11.598;2023-03-01T06:13:45;-0.30;99.90
16513;DHT22;8369;48.030;11.598;2023-03-01T06:16:12;-0.20;99.90
16513;DHT22;8369;48.030;11.598;2023-03-01T06:18:38;-0.30;99.90
16513;DHT22;8369;48.030;11.598;2023-03-01T06:21:05;-0.20;99.90
16513;DHT22;8369;48.030;11.598;2023-03-01T06:23:31;-0.30;99.90
16513;DHT22;8369;48.030;11.598;2023-03-01T06:25:57;-0.30;99.90
16513;DHT22;8369;48.030;11.598;2023-03-01T06:28:26;-0.30;99.90
16513;DHT22;8369;48.030;11.598;2023-03-01T06:30:52;-0.30;99.90
16513;DHT22;8369;48.030;11.598;2023-03-01T06:33:19;-0.30;99.90
16513;DHT22;8369;48.030;11.598;2023-03-01T06:35:50;-0.40;99.90
16513;DHT22;8369;48.030;11.598;2023-03-01T06:38:16;-0.40;99.90
16513;DHT22;8369;48.030;11.598;2023-03-01T06:40:52;-0.40;99.90
16513;DHT22;8369;48.030;11.598;2023-03-01T06:43:20;-0.40;99.90
16513;DHT22;8369;48.030;11.598;2023-03-01T06:45:45;-0.40;99.90
16513;DHT22;8369;48.030;11.598;2023-03-01T06:48:11;-0.40;99.90
16513;DHT22;8369;48.030;11.598;2023-03-01T06:50:39;-0.40;99.90
16513;DHT22;8369;48.030;11.598;2023-03-01T06:53:05;-0.40;99.90
16513;DHT22;8369;48.030;11.598;2023-03-01T06:55:31;-0.40;99.90
16513;DHT22;8369;48.030;11.598;2023-03-01T06:57:59;-0.40;99.90
16513;DHT22;8369;48.030;11.598;2023-03-01T07:00:25;-0.40;99.90
16513;DHT22;8369;48.030;11.598;2023-03-01T07:02:51;-0.40;99.90
16513;DHT22;8369;48.030;11.598;2023-03-01T07:05:17;-0.40;99.90
16513;DHT22;8369;48.030;11.598;2023-03-01T07:07:43;-0.40;99.90
16513;DHT22;8369;48.030;11.598;2023-03-01T07:10:09;-0.40;99.90
16513;DHT22;8369;48.030;11.598;2023-03-01T07:12:35;-0.40;99.90
16513;DHT22;8369;48.030;11.598;2023-03-01T07:15:02;-0.40;99.90
16513;DHT22;8369;48.030;11.598;2023-03-01T07:17:27;-0.40;99.90
16513;DHT22;8369;48.030;11.598;2023-03-01T07:19:53;-0.30;99.90
16513;DHT22;8369;48.030;11.598;2023-03-01T07:22:19;-0.30;99.90
16513;DHT22;8369;48.030;11.598;2023-03-01T07:24:45;-0.30;99.90
16513;DHT22;8369;48.030;11.598;2023-03-01T07:27:10;-0.40;99.90
16513;DHT22;8369;48.030;11.598;2023-03-01T07:29:36;-0.30;99.90
16513;DHT22;8369;48.030;11.598;2023-03-01T07:32:03;-0.40;99.90
16513;DHT22;8369;48.030;11.598;2023-03-01T07:34:29;-0.40;99.90
16513;DHT22;8369;48.030;11.598;2023-03-01T07:36:54;-0.40;99.90
16513;DHT22;8369;48.030;11.598;2023-03-01T07:39:21;-0.30;99.90
16513;DHT22;8369;48.030;11.598;2023-03-01T07:41:48;-0.30;99.90
16513;DHT22;8369;48.030;11.598;2023-03-01T07:44:14;-0.30;99.90
16513;DHT22;8369;48.030;11.598;2023-03-01T07:46:41;-0.30;99.90
16513;DHT22;8369;48.030;11.598;2023-03-01T07:49:08;-0.30;99.90
16513;DHT22;8369;48.030;11.598;2023-03-01T07:51:34;-0.40;99.90
16513;DHT22;8369;48.030;11.598;2023-03-01T07:54:00;-0.30;99.90
16513;DHT22;8369;48.030;11.598;2023-03-01T07:56:25;-0.30;99.90
16513;DHT22;8369;48.030;11.598;2023-03-01T07:58:51;-0.30;99.90
16513;DHT22;8369;48.030;11.598;2023-03-01T08:01:20;-0.30;99.90
16513;DHT22;8369;48.030;11.598;2023-03-01T08:03:46;-0.20;99.90
16513;DHT22;8369;48.030;11.598;2023-03-01T08:06:14;-0.20;99.90
16513;DHT22;8369;48.030;11.598;2023-03-01T08:08:39;-0.20;99.90
16513;DHT22;8369;48.030;11.598;2023-03-01T08:11:07;-0.20;99.90
16513;DHT22;8369;48.030;11.598;2023-03-01T08:13:33;-0.20;99.90
16513;DHT22;8369;48.030;11.598;2023-03-01T08:16:08;-0.10;99.90
16513;DHT22;8369;48.030;11.598;2023-03-01T08:18:35;-0.10;99.90
16513;DHT22;8369;48.030;11.598;2023-03-01T08:21:19;0.00;99.90
16513;DHT22;8369;48.030;11.598;2023-03-01T08:23:45;0.00;99.90
16513;DHT22;8369;48.030;11.598;2023-03-01T08:26:16;0.00;99.90
16513;DHT22;8369;48.030;11.598;2023-03-01T08:28:44;0.00;99.90
16513;DHT22;8369;48.030;11.598;2023-03-01T08:31:21;0.00;99.90
16513;DHT22;8369;48.030;11.598;2023-03-01T08:33:48;0.10;99.90
16513;DHT22;8369;48.030;11.598;2023-03-01T08:36:17;0.10;99.90
16513;DHT22;8369;48.030;11.598;2023-03-01T08:38:44;0.10;99.90
16513;DHT22;8369;48.030;11.598;2023-03-01T08:41:09;0.10;99.90
16513;DHT22;8369;48.030;11.598;2023-03-01T08:43:35;0.10;99.90
16513;DHT22;8369;48.030;11.598;2023-03-01T08:46:01;0.10;99.90
16513;DHT22;8369;48.030;11.598;2023-03-01T08:48:28;0.10;99.90
16513;DHT22;8369;48.030;11.598;2023-03-01T08:50:54;0.20;99.90
16513;DHT22;8369;48.030;11.598;2023-03-01T08:53:20;0.20;99.90
16513;DHT22;8369;48.030;11.598;2023-03-01T08:55:46;0.20;99.90
16513;DHT22;8369;48.030;11.598;2023-03-01T08:58:12;0.30;99.90
16513;DHT22;8369;48.030;11.598;2023-03-01T09:00:38;0.30;99.90
16513;DHT22;8369;48.030;11.598;2023-03-01T09:03:04;0.30;99.90
16513;DHT22;8369;48.030;11.598;2023-03-01T09:05:33;0.40;99.90
16513;DHT22;8369;48.030;11.598;2023-03-01T09:07:59;0.40;99.90
16513;DHT22;8369;48.030;11.598;2023-03-01T09:10:25;0.40;99.90
16513;DHT22;8369;48.030;11.598;2023-03-01T09:12:51;0.50;99.90
16513;DHT22;8369;48.030;11.598;2023-03-01T09:15:17;0.50;99.90
16513;DHT22;8369;48.030;11.598;2023-03-01T09:17:43;0.50;99.90
16513;DHT22;8369;48.030;11.598;2023-03-01T09:20:09;0.50;99.90
16513;DHT22;8369;48.030;11.598;2023-03-01T09:22:35;0.50;99.90
16513;DHT22;8369;48.030;11.598;2023-03-01T09:25:01;0.60;99.90
16513;DHT22;8369;48.030;11.598;2023-03-01T09:27:27;0.60;99.90
16513;DHT22;8369;48.030;11.598;2023-03-01T09:29:52;0.60;99.90
16513;DHT22;8369;48.030;11.598;2023-03-01T09:35:55;0.60;99.90
16513;DHT22;8369;48.030;11.598;2023-03-01T09:38:22;0.60;99.90
16513;DHT22;8369;48.030;11.598;2023-03-01T09:40:50;0.70;99.90
16513;DHT22;8369;48.030;11.598;2023-03-01T09:45:50;0.70;99.90
16513;DHT22;8369;48.030;11.598;2023-03-01T09:48:23;0.80;99.90
16513;DHT22;8369;48.030;11.598;2023-03-01T09:50:51;0.80;99.90
16513;DHT22;8369;48.030;11.598;2023-03-01T09:53:33;0.80;99.90
16513;DHT22;8369;48.030;11.598;2023-03-01T09:56:17;0.90;99.90
16513;DHT22;8369;48.030;11.598;2023-03-01T09:59:11;0.90;99.90
16513;DHT22;8369;48.030;11.598;2023-03-01T10:09:29;0.90;99.90
16513;DHT22;8369;48.030;11.598;2023-03-01T10:11:58;0.90;99.90
16513;DHT22;8369;48.030;11.598;2023-03-01T10:17:37;0.90;99.90
16513;DHT22;8369;48.030;11.598;2023-03-01T10:20:22;0.90;99.90
16513;DHT22;8369;48.030;11.598;2023-03-01T10:22:49;1.00;99.90
16513;DHT22;8369;48.030;11.598;2023-03-01T10:25:55;1.00;99.90
16513;DHT22;8369;48.030;11.598;2023-03-01T10:28:50;1.00;99.90
16513;DHT22;8369;48.030;11.598;2023-03-01T10:31:25;1.00;99.90
16513;DHT22;8369;48.030;11.598;2023-03-01T10:33:54;1.10;99.90
16513;DHT22;8369;48.030;11.598;2023-03-01T10:36:23;1.10;99.90
16513;DHT22;8369;48.030;11.598;2023-03-01T10:38:54;1.10;99.90
16513;DHT22;8369;48.030;11.598;2023-03-01T10:41:24;1.10;99.90
16513;DHT22;8369;48.030;11.598;2023-03-01T10:43:52;1.10;99.90
16513;DHT22;8369;48.030;11.598;2023-03-01T10:46:29;1.20;99.90
16513;DHT22;8369;48.030;11.598;2023-03-01T10:51:45;1.20;99.90
16513;DHT22;8369;48.030;11.598;2023-03-01T10:54:25;1.30;99.90
16513;DHT22;8369;48.030;11.598;2023-03-01T10:57:01;1.30;99.90
16513;DHT22;8369;48.030;11.598;2023-03-01T10:59:35;1.30;99.90
16513;DHT22;8369;48.030;11.598;2023-03-01T11:02:18;1.30;99.90
16513;DHT22;8369;48.030;11.598;2023-03-01T11:05:00;1.30;99.90
16513;DHT22;8369;48.030;11.598;2023-03-01T11:07:26;1.40;99.90
16513;DHT22;8369;48.030;11.598;2023-03-01T11:09:52;1.40;99.90
16513;DHT22;8369;48.030;11.598;2023-03-01T11:12:19;1.40;99.90
16513;DHT22;8369;48.030;11.598;2023-03-01T11:14:48;1.40;99.90
16513;DHT22;8369;48.030;11.598;2023-03-01T11:17:23;1.40;99.90
16513;DHT22;8369;48.030;11.598;2023-03-01T11:20:02;1.40;99.90
16513;DHT22;8369;48.030;11.598;2023-03-01T11:22:31;1.50;99.90
16513;DHT22;8369;48.030;11.598;2023-03-01T11:24:58;1.50;99.90
16513;DHT22;8369;48.030;11.598;2023-03-01T11:27:31;1.50;99.90
16513;DHT22;8369;48.030;11.598;2023-03-01T11:30:09;1.50;99.90
16513;DHT22;8369;48.030;11.598;2023-03-01T11:33:04;1.50;99.90
16513;DHT22;8369;48.030;11.598;2023-03-01T11:35:35;1.50;99.90
16513;DHT22;8369;48.030;11.598;2023-03-01T11:38:21;1.50;99.90
16513;DHT22;8369;48.030;11.598;2023-03-01T11:40:52;1.50;99.90
16513;DHT22;8369;48.030;11.598;2023-03-01T11:43:27;1.60;99.90
16513;DHT22;8369;48.030;11.598;2023-03-01T11:57:06;1.80;99.90
16513;DHT22;8369;48.030;11.598;2023-03-01T12:00:16;1.90;99.90
16513;DHT22;8369;48.030;11.598;2023-03-01T12:03:16;2.00;99.90
16513;DHT22;8369;48.030;11.598;2023-03-01T12:09:09;2.30;99.90
16513;DHT22;8369;48.030;11.598;2023-03-01T12:12:23;2.30;99.90
16513;DHT22;8369;48.030;11.598;2023-03-01T12:15:07;2.40;99.90
16513;DHT22;8369;48.030;11.598;2023-03-01T12:26:02;2.90;99.90
16513;DHT22;8369;48.030;11.598;2023-03-01T12:42:46;3.30;99.90
16513;DHT22;8369;48.030;11.598;2023-03-01T12:48:28;3.40;99.90
16513;DHT22;8369;48.030;11.598;2023-03-01T12:51:01;3.50;99.90
16513;DHT22;8369;48.030;11.598;2023-03-01T12:53:50;3.50;99.90
16513;DHT22;8369;48.030;11.598;2023-03-01T12:56:24;3.60;99.90
16513;DHT22;8369;48.030;11.598;2023-03-01T12:59:12;3.70;99.90
16513;DHT22;8369;48.030;11.598;2023-03-01T13:04:50;3.80;99.90
16513;DHT22;8369;48.030;11.598;2023-03-01T13:07:34;3.80;99.90
16513;DHT22;8369;48.030;11.598;2023-03-01T13:17:49;4.00;99.90
16513;DHT22;8369;48.030;11.598;2023-03-01T13:20:20;4.00;99.90
16513;DHT22;8369;48.030;11.598;2023-03-01T13:22:47;4.00;99.90
16513;DHT22;8369;48.030;11.598;2023-03-01T13:25:19;4.10;99.90
16513;DHT22;8369;48.030;11.598;2023-03-01T13:27:46;4.10;99.90
16513;DHT22;8369;48.030;11.598;2023-03-01T13:35:55;4.10;99.90
16513;DHT22;8369;48.030;11.598;2023-03-01T13:46:59;4.10;99.90
16513;DHT22;8369;48.030;11.598;2023-03-01T13:49:29;4.20;99.90
16513;DHT22;8369;48.030;11.598;2023-03-01T13:51:58;4.20;99.90
16513;DHT22;8369;48.030;11.598;2023-03-01T13:54:33;4.20;99.90
16513;DHT22;8369;48.030;11.598;2023-03-01T13:57:00;4.20;99.90
16513;DHT22;8369;48.030;11.598;2023-03-01T13:59:27;4.20;99.90
16513;DHT22;8369;48.030;11.598;2023-03-01T14:01:57;4.30;99.90
16513;DHT22;8369;48.030;11.598;2023-03-01T14:04:32;4.30;99.90
16513;DHT22;8369;48.030;11.598;2023-03-01T14:07:11;4.30;99.90
16513;DHT22;8369;48.030;11.598;2023-03-01T14:09:40;4.30;99.90
16513;DHT22;8369;48.030;11.598;2023-03-01T14:12:16;4.30;99.90
16513;DHT22;8369;48.030;11.598;2023-03-01T14:17:43;4.30;99.90
16513;DHT22;8369;48.030;11.598;2023-03-01T14:20:24;4.30;99.90
16513;DHT22;8369;48.030;11.598;2023-03-01T14:22:59;4.30;99.90
16513;DHT22;8369;48.030;11.598;2023-03-01T14:25:29;4.30;99.90
16513;DHT22;8369;48.030;11.598;2023-03-01T14:27:59;4.30;99.90
16513;DHT22;8369;48.030;11.598;2023-03-01T14:30:38;4.30;99.90
16513;DHT22;8369;48.030;11.598;2023-03-01T14:33:28;4.30;99.90
16513;DHT22;8369;48.030;11.598;2023-03-01T14:36:01;4.30;99.90
16513;DHT22;8369;48.030;11.598;2023-03-01T14:38:40;4.30;99.90
16513;DHT22;8369;48.030;11.598;2023-03-01T14:41:18;4.40;99.90
16513;DHT22;8369;48.030;11.598;2023-03-01T14:44:12;4.40;99.90
16513;DHT22;8369;48.030;11.598;2023-03-01T14:46:41;4.40;99.90
16513;DHT22;8369;48.030;11.598;2023-03-01T14:49:25;4.50;99.90
16513;DHT22;8369;48.030;11.598;2023-03-01T14:52:01;4.50;99.90
16513;DHT22;8369;48.030;11.598;2023-03-01T14:54:40;4.60;99.90
16513;DHT22;8369;48.030;11.598;2023-03-01T14:57:19;4.50;99.90
16513;DHT22;8369;48.030;11.598;2023-03-01T14:59:45;4.50;99.90
16513;DHT22;8369;48.030;11.598;2023-03-01T15:02:19;4.50;99.90
16513;DHT22;8369;48.030;11.598;2023-03-01T15:04:48;4.50;99.90
16513;DHT22;8369;48.030;11.598;2023-03-01T15:07:15;4.50;99.90
16513;DHT22;8369;48.030;11.598;2023-03-01T15:09:41;4.50;99.90
16513;DHT22;8369;48.030;11.598;2023-03-01T15:12:38;4.50;99.90
16513;DHT22;8369;48.030;11.598;2023-03-01T15:15:43;4.50;99.90
16513;DHT22;8369;48.030;11.598;2023-03-01T15:18:25;4.50;99.90
16513;DHT22;8369;48.030;11.598;2023-03-01T15:20:52;4.50;99.90
16513;DHT22;8369;48.030;11.598;2023-03-01T15:23:28;4.50;99.90
16513;DHT22;8369;48.030;11.598;2023-03-01T15:25:55;4.40;99.90
16513;DHT22;8369;48.030;11.598;2023-03-01T15:28:28;4.40;99.90
16513;DHT22;8369;48.030;11.598;2023-03-01T15:31:05;4.40;99.90
16513;DHT22;8369;48.030;11.598;2023-03-01T15:33:37;4.40;99.90
16513;DHT22;8369;48.030;11.598;2023-03-01T15:36:40;4.30;99.90
16513;DHT22;8369;48.030;11.598;2023-03-01T15:41:59;4.30;99.90
16513;DHT22;8369;48.030;11.598;2023-03-01T15:44:32;4.30;99.90
16513;DHT22;8369;48.030;11.598;2023-03-01T15:46:59;4.20;99.90
16513;DHT22;8369;48.030;11.598;2023-03-01T15:49:45;4.20;99.90
16513;DHT22;8369;48.030;11.598;2023-03-01T15:52:24;4.10;99.90
16513;DHT22;8369;48.030;11.598;2023-03-01T15:55:03;4.10;99.90
16513;DHT22;8369;48.030;11.598;2023-03-01T15:57:30;4.10;99.90
16513;DHT22;8369;48.030;11.598;2023-03-01T15:59:59;4.10;99.90
16513;DHT22;8369;48.030;11.598;2023-03-01T16:02:26;4.00;99.90
16513;DHT22;8369;48.030;11.598;2023-03-01T16:04:53;4.00;99.90
16513;DHT22;8369;48.030;11.598;2023-03-01T16:07:22;3.90;99.90
16513;DHT22;8369;48.030;11.598;2023-03-01T16:09:49;3.90;99.90
16513;DHT22;8369;48.030;11.598;2023-03-01T16:12:16;3.80;99.90
16513;DHT22;8369;48.030;11.598;2023-03-01T16:14:44;3.80;99.90
16513;DHT22;8369;48.030;11.598;2023-03-01T16:17:11;3.70;99.90
16513;DHT22;8369;48.030;11.598;2023-03-01T16:19:37;3.70;99.90
16513;DHT22;8369;48.030;11.598;2023-03-01T16:22:05;3.70;99.90
16513;DHT22;8369;48.030;11.598;2023-03-01T16:24:33;3.60;99.90
16513;DHT22;8369;48.030;11.598;2023-03-01T16:27:04;3.60;99.90
16513;DHT22;8369;48.030;11.598;2023-03-01T16:29:35;3.50;99.90
16513;DHT22;8369;48.030;11.598;2023-03-01T16:32:03;3.50;99.90
16513;DHT22;8369;48.030;11.598;2023-03-01T16:34:30;3.40;99.90
16513;DHT22;8369;48.030;11.598;2023-03-01T16:36:57;3.40;99.90
16513;DHT22;8369;48.030;11.598;2023-03-01T16:39:27;3.30;99.90
16513;DHT22;8369;48.030;11.598;2023-03-01T16:41:53;3.30;99.90
16513;DHT22;8369;48.030;11.598;2023-03-01T16:44:20;3.30;99.90
16513;DHT22;8369;48.030;11.598;2023-03-01T16:46:48;3.20;99.90
16513;DHT22;8369;48.030;11.598;2023-03-01T16:49:15;3.20;99.90
16513;DHT22;8369;48.030;11.598;2023-03-01T16:51:45;3.10;99.90
16513;DHT22;8369;48.030;11.598;2023-03-01T16:54:12;3.10;99.90
16513;DHT22;8369;48.030;11.598;2023-03-01T16:56:39;3.10;99.90
16513;DHT22;8369;48.030;11.598;2023-03-01T16:59:06;3.00;99.90
16513;DHT22;8369;48.030;11.598;2023-03-01T17:01:36;3.00;99.90
16513;DHT22;8369;48.030;11.598;2023-03-01T17:04:11;3.00;99.90
16513;DHT22;8369;48.030;11.598;2023-03-01T17:06:38;3.00;99.90
16513;DHT22;8369;48.030;11.598;2023-03-01T17:09:05;2.90;99.90
16513;DHT22;8369;48.030;11.598;2023-03-01T17:11:32;2.90;99.90
16513;DHT22;8369;48.030;11.598;2023-03-01T17:13:59;2.80;99.90
16513;DHT22;8369;48.030;11.598;2023-03-01T17:16:26;2.80;99.90
16513;DHT22;8369;48.030;11.598;2023-03-01T17:18:53;2.80;99.90
16513;DHT22;8369;48.030;11.598;2023-03-01T17:21:21;2.70;99.90
16513;DHT22;8369;48.030;11.598;2023-03-01T17:23:48;2.70;99.90
16513;DHT22;8369;48.030;11.598;2023-03-01T17:26:15;2.70;99.90
16513;DHT22;8369;48.030;11.598;2023-03-01T17:28:42;2.60;99.90
16513;DHT22;8369;48.030;11.598;2023-03-01T17:31:10;2.60;99.90
16513;DHT22;8369;48.030;11.598;2023-03-01T17:33:39;2.60;99.90
16513;DHT22;8369;48.030;11.598;2023-03-01T17:36:07;2.50;99.90
16513;DHT22;8369;48.030;11.598;2023-03-01T17:38:34;2.50;99.90
16513;DHT22;8369;48.030;11.598;2023-03-01T17:41:03;2.40;99.90
16513;DHT22;8369;48.030;11.598;2023-03-01T17:43:31;2.40;99.90
16513;DHT22;8369;48.030;11.598;2023-03-01T17:45:59;2.30;99.90